Time;durP1;ratioP1;P1;durP2;ratioP2;P2;SDS_P1;SDS_P2;PMS_P1;PMS_P2;Temp;Humidity;BMP_temperature;BMP_pressure;BME280_temperature;BME280_humidity;BME280_pressure;Samples;Min_cycle;Max_cycle;Signal;HPM_P1;HPM_P2
2023/05/06 00:00:18;;;;;;;;;;;;;;;;;;6213562;22;19942;-87
2023/05/06 00:02:45;;;;;;;;;;;;;;;;;;6235811;22;19930;-87
2023/05/06 00:05:12;;;;;;;;;;;;;;;;;;6237706;22;19994;-88
2023/05/06 00:07:38;;;;;;;;;;;;;;;;;;6239185;22;19930;-88
2023/05/06 00:10:04;;;;;;;;;;;;;;;;;;6214593;22;19990;-88
2023/05/06 00:12:30;;;;;;;;;;;;;;;;;;6239141;22;19998;-87
2023/05/06 00:14:56;;;;;;;;;;;;;;;;;;6241275;22;20317;-87
2023/05/06 00:17:22;;;;;;;;;;;;;;;;;;6236829;22;20294;-88
2023/05/06 00:19:48;;;;;;;;;;;;;;;;;;6240922;22;19915;-88
2023/05/06 00:22:14;;;;;;;;;;;;;;;;;;6264060;22;19919;-88
2023/05/06 00:24:40;;;;;;;;;;;;;;;;;;6215399;22;19926;-87
2023/05/06 00:27:06;;;;;;;;;;;;;;;;;;6237558;22;19919;-87
2023/05/06 00:29:32;;;;;;;;;;;;;;;;;;6240995;22;20249;-87
2023/05/06 00:31:58;;;;;;;;;;;;;;;;;;6238099;22;19919;-87
2023/05/06 00:34:24;;;;;;;;;;;;;;;;;;6210914;22;20438;-87
2023/05/06 00:36:50;;;;;;;;;;;;;;;;;;6214585;22;19915;-87
2023/05/06 00:39:16;;;;;;;;;;;;;;;;;;6210841;22;19930;-87
2023/05/06 00:41:42;;;;;;;;;;;;;;;;;;6236381;22;19925;-88
2023/05/06 00:44:08;;;;;;;;;;;;;;;;;;6214489;22;19915;-88
2023/05/06 00:46:35;;;;;;;;;;;;;;;;;;6216683;22;19923;-88
2023/05/06 00:49:01;;;;;;;;;;;;;;;;;;6241355;22;19937;-87
2023/05/06 00:51:27;;;;;;;;;;;;;;;;;;6240375;22;19958;-88
2023/05/06 00:53:53;;;;;;;;;;;;;;;;;;6217084;22;20402;-87
2023/05/06 00:56:19;;;;;;;;;;;;;;;;;;6237546;22;20251;-88
2023/05/06 00:58:45;;;;;;;;;;;;;;;;;;6216583;22;19919;-88
2023/05/06 01:01:11;;;;;;;;;;;;;;;;;;6214374;22;19915;-88
2023/05/06 01:03:38;;;;;;;;;;;;;;;;;;6216147;22;19915;-88
2023/05/06 01:06:04;;;;;;;;;;;;;;;;;;6241270;22;20006;-88
2023/05/06 01:08:30;;;;;;;;;;;;;;;;;;6242626;22;19919;-88
2023/05/06 01:10:56;;;;;;;;;;;;;;;;;;6242857;22;19988;-87
2023/05/06 01:13:22;;;;;;;;;;;;;;;;;;6240085;22;19915;-87
2023/05/06 01:15:48;;;;;;;;;;;;;;;;;;6215583;22;20419;-88
2023/05/06 01:18:14;;;;;;;;;;;;;;;;;;6239725;22;20264;-88
2023/05/06 01:20:41;;;;;;;;;;;;;;;;;;6215965;22;19919;-88
2023/05/06 01:23:07;;;;;;;;;;;;;;;;;;6213067;22;19964;-88
2023/05/06 01:25:33;;;;;;;;;;;;;;;;;;6216458;22;20036;-87
2023/05/06 01:27:59;;;;;;;;;;;;;;;;;;6216126;22;19926;-88
2023/05/06 01:30:25;;;;;;;;;;;;;;;;;;6213820;22;20437;-88
2023/05/06 01:32:51;;;;;;;;;;;;;;;;;;6268734;22;19939;-88
2023/05/06 01:35:17;;;;;;;;;;;;;;;;;;6236985;22;19919;-88
2023/05/06 01:37:43;;;;;;;;;;;;;;;;;;6240135;22;19923;-88
2023/05/06 01:40:09;;;;;;;;;;;;;;;;;;6210377;22;19919;-88
2023/05/06 01:42:35;;;;;;;;;;;;;;;;;;6240172;22;19973;-88
2023/05/06 01:45:00;;;;;;;;;;;;;;;;;;6241763;22;20438;-88
2023/05/06 01:47:26;;;;;;;;;;;;;;;;;;6236998;22;19994;-88
2023/05/06 01:49:52;;;;;;;;;;;;;;;;;;6214574;22;19915;-88
2023/05/06 01:52:18;;;;;;;;;;;;;;;;;;6238058;22;19926;-88
2023/05/06 01:54:44;;;;;;;;;;;;;;;;;;6212708;22;19919;-88
2023/05/06 01:57:10;;;;;;;;;;;;;;;;;;6237115;22;20438;-88
2023/05/06 01:59:36;;;;;;;;;;;;;;;;;;6239612;22;20007;-88
2023/05/06 02:02:02;;;;;;;;;;;;;;;;;;6238065;22;19950;-88
2023/05/06 02:04:28;;;;;;;;;;;;;;;;;;6211645;22;19916;-88
2023/05/06 02:06:54;;;;;;;;;;;;;;;;;;6215405;22;19973;-88
2023/05/06 02:09:20;;;;;;;;;;;;;;;;;;6236228;22;20410;-88
2023/05/06 02:11:46;;;;;;;;;;;;;;;;;;6213361;22;20379;-88
2023/05/06 02:14:12;;;;;;;;;;;;;;;;;;6238857;22;19919;-88
2023/05/06 02:16:38;;;;;;;;;;;;;;;;;;6215208;22;19919;-88
2023/05/06 02:19:05;;;;;;;;;;;;;;;;;;6236898;22;19934;-88
2023/05/06 02:21:31;;;;;;;;;;;;;;;;;;6213317;22;19974;-88
2023/05/06 02:23:57;;;;;;;;;;;;;;;;;;6241206;22;19915;-88
2023/05/06 02:26:23;;;;;;;;;;;;;;;;;;6210542;22;19962;-88
2023/05/06 02:28:49;;;;;;;;;;;;;;;;;;6239816;22;19994;-88
2023/05/06 02:31:15;;;;;;;;;;;;;;;;;;6211339;22;19921;-88
2023/05/06 02:33:41;;;;;;;;;;;;;;;;;;6238345;22;19919;-88
2023/05/06 02:36:07;;;;;;;;;;;;;;;;;;6211724;22;19926;-88
2023/05/06 02:38:33;;;;;;;;;;;;;;;;;;6240197;22;20410;-88
2023/05/06 02:40:59;;;;;;;;;;;;;;;;;;6212138;22;20252;-88
2023/05/06 02:43:25;;;;;;;;;;;;;;;;;;6212294;22;20034;-88
2023/05/06 02:45:51;;;;;;;;;;;;;;;;;;6239311;22;19946;-88
2023/05/06 02:48:17;;;;;;;;;;;;;;;;;;6237644;22;19919;-88
2023/05/06 02:50:43;;;;;;;;;;;;;;;;;;6237672;22;20271;-87
2023/05/06 02:53:09;;;;;;;;;;;;;;;;;;6238463;22;19989;-88
2023/05/06 02:55:35;;;;;;;;;;;;;;;;;;6214185;22;19926;-88
2023/05/06 02:58:01;;;;;;;;;;;;;;;;;;6212341;22;19923;-88
2023/05/06 03:00:27;;;;;;;;;;;;;;;;;;6208865;22;20229;-87
2023/05/06 03:02:53;;;;;;;;;;;;;;;;;;6238375;22;19915;-88
2023/05/06 03:05:19;;;;;;;;;;;;;;;;;;6211192;22;19923;-88
2023/05/06 03:07:45;;;;;;;;;;;;;;;;;;6213839;22;19953;-88
2023/05/06 03:10:11;;;;;;;;;;;;;;;;;;6235677;22;20327;-87
2023/05/06 03:12:37;;;;;;;;;;;;;;;;;;6211761;22;19969;-88
2023/05/06 03:15:04;;;;;;;;;;;;;;;;;;6213638;22;19915;-87
2023/05/06 03:17:30;;;;;;;;;;;;;;;;;;6240671;22;20324;-87
2023/05/06 03:19:56;;;;;;;;;;;;;;;;;;6238906;22;19925;-88
2023/05/06 03:22:23;;;;;;;;;;;;;;;;;;6210046;22;21269;-88
2023/05/06 03:24:49;;;;;;;;;;;;;;;;;;6215293;22;19965;-88
2023/05/06 03:27:15;;;;;;;;;;;;;;;;;;6234191;22;19919;-88
2023/05/06 03:29:41;;;;;;;;;;;;;;;;;;6238546;22;19915;-88
2023/05/06 03:32:07;;;;;;;;;;;;;;;;;;6235401;22;19926;-88
2023/05/06 03:34:33;;;;;;;;;;;;;;;;;;6239735;22;19919;-87
2023/05/06 03:36:59;;;;;;;;;;;;;;;;;;6240077;22;20371;-87
2023/05/06 03:39:25;;;;;;;;;;;;;;;;;;6238963;22;19929;-87
2023/05/06 03:41:51;;;;;;;;;;;;;;;;;;6237872;22;19915;-87
2023/05/06 03:44:17;;;;;;;;;;;;;;;;;;6238046;22;19922;-87
2023/05/06 03:46:43;;;;;;;;;;;;;;;;;;6240575;22;20230;-87
2023/05/06 03:49:09;;;;;;;;;;;;;;;;;;6212616;22;20303;-88
2023/05/06 03:51:35;;;;;;;;;;;;;;;;;;6240225;22;19923;-87
2023/05/06 03:54:01;;;;;;;;;;;;;;;;;;6238217;22;20229;-87
2023/05/06 03:56:27;;;;;;;;;;;;;;;;;;6211705;22;19919;-87
2023/05/06 03:58:53;;;;;;;;;;;;;;;;;;6268239;22;20049;-87
2023/05/06 04:01:19;;;;;;;;;;;;;;;;;;6212157;22;19925;-87
2023/05/06 04:03:45;;;;;;;;;;;;;;;;;;6237872;22;19978;-87
2023/05/06 04:06:11;;;;;;;;;;;;;;;;;;6264791;22;20695;-87
2023/05/06 04:08:37;;;;;;;;;;;;;;;;;;6241311;22;19986;-87
2023/05/06 04:11:04;;;;;;;;;;;;;;;;;;6213997;22;19922;-87
2023/05/06 04:13:30;;;;;;;;;;;;;;;;;;6238463;22;19919;-87
2023/05/06 04:15:56;;;;;;;;;;;;;;;;;;6211218;22;19954;-88
2023/05/06 04:18:22;;;;;;;;;;;;;;;;;;6211399;22;19926;-87
2023/05/06 04:20:48;;;;;;;;;;;;;;;;;;6214263;22;19919;-87
2023/05/06 04:23:14;;;;;;;;;;;;;;;;;;6211070;22;19923;-87
2023/05/06 04:25:47;;;;;;;;;;;;;;;;;;6265481;22;20287;-87
2023/05/06 04:28:13;;;;;;;;;;;;;;;;;;6211449;22;19919;-87
2023/05/06 04:30:39;;;;;;;;;;;;;;;;;;6238845;22;20442;-87
2023/05/06 04:33:06;;;;;;;;;;;;;;;;;;6235557;22;20297;-87
2023/05/06 04:35:32;;;;;;;;;;;;;;;;;;6240365;22;19994;-87
2023/05/06 04:37:58;;;;;;;;;;;;;;;;;;6241176;22;19919;-88
2023/05/06 04:40:25;;;;;;;;;;;;;;;;;;6236657;22;20429;-88
2023/05/06 04:42:51;;;;;;;;;;;;;;;;;;6268091;22;19986;-87
2023/05/06 04:45:17;;;;;;;;;;;;;;;;;;6236346;22;19975;-87
2023/05/06 04:47:43;;;;;;;;;;;;;;;;;;6240318;22;19946;-87
2023/05/06 04:50:09;;;;;;;;;;;;;;;;;;6236941;22;19919;-88
2023/05/06 04:52:35;;;;;;;;;;;;;;;;;;6240297;22;19929;-87
2023/05/06 04:55:01;;;;;;;;;;;;;;;;;;6266459;22;19919;-87
2023/05/06 04:57:27;;;;;;;;;;;;;;;;;;6236895;22;20251;-87
2023/05/06 04:59:53;;;;;;;;;;;;;;;;;;6240916;22;20233;-87
2023/05/06 05:02:19;;;;;;;;;;;;;;;;;;6208986;22;20291;-87
2023/05/06 05:04:44;;;;;;;;;;;;;;;;;;6238884;22;19927;-87
2023/05/06 05:07:10;;;;;;;;;;;;;;;;;;6212663;22;20033;-87
2023/05/06 05:09:36;;;;;;;;;;;;;;;;;;6214557;22;19923;-87
2023/05/06 05:12:02;;;;;;;;;;;;;;;;;;6238914;22;20408;-87
2023/05/06 05:14:28;;;;;;;;;;;;;;;;;;6211324;22;20226;-87
2023/05/06 05:16:54;;;;;;;;;;;;;;;;;;6215883;22;20247;-87
2023/05/06 05:19:20;;;;;;;;;;;;;;;;;;6212627;22;19923;-87
2023/05/06 05:21:46;;;;;;;;;;;;;;;;;;6239103;22;19919;-87
2023/05/06 05:24:12;;;;;;;;;;;;;;;;;;6236631;22;19951;-87
2023/05/06 05:26:38;;;;;;;;;;;;;;;;;;6242461;22;19919;-87
2023/05/06 05:29:05;;;;;;;;;;;;;;;;;;6213524;22;19923;-88
2023/05/06 05:31:31;;;;;;;;;;;;;;;;;;6216198;22;19941;-87
2023/05/06 05:33:57;;;;;;;;;;;;;;;;;;6240280;22;19955;-87
2023/05/06 05:36:23;;;;;;;;;;;;;;;;;;6239509;22;20352;-87
2023/05/06 05:38:49;;;;;;;;;;;;;;;;;;6240117;22;20261;-87
2023/05/06 05:41:17;;;;;;;;;;;;;;;;;;6265495;22;19923;-87
2023/05/06 05:43:52;;;;;;;;;;;;;;;;;;6235809;22;19925;-88
2023/05/06 05:46:18;;;;;;;;;;;;;;;;;;6264469;22;19947;-87
2023/05/06 05:48:44;;;;;;;;;;;;;;;;;;6217782;22;20355;-87
2023/05/06 05:51:10;;;;;;;;;;;;;;;;;;6265557;22;19926;-87
2023/05/06 05:53:36;;;;;;;;;;;;;;;;;;6241607;22;19926;-87
2023/05/06 05:56:02;;;;;;;;;;;;;;;;;;6215109;22;19923;-87
2023/05/06 05:58:28;;;;;;;;;;;;;;;;;;6214277;22;19920;-87
2023/05/06 06:00:54;;;;;;;;;;;;;;;;;;6240751;22;19930;-87
2023/05/06 06:03:20;;;;;;;;;;;;;;;;;;6238337;22;20028;-87
2023/05/06 06:05:48;;;;;;;;;;;;;;;;;;6242193;22;19989;-87
2023/05/06 06:08:14;;;;;;;;;;;;;;;;;;6213827;22;19996;-87
2023/05/06 06:10:40;;;;;;;;;;;;;;;;;;6240520;22;20664;-87
2023/05/06 06:13:06;;;;;;;;;;;;;;;;;;6213874;22;19926;-87
2023/05/06 06:15:32;;;;;;;;;;;;;;;;;;6241344;22;19919;-87
2023/05/06 06:17:58;;;;;;;;;;;;;;;;;;6242167;22;19926;-87
2023/05/06 06:20:25;;;;;;;;;;;;;;;;;;6240030;22;19923;-88
2023/05/06 06:22:51;;;;;;;;;;;;;;;;;;6216970;22;20312;-87
2023/05/06 06:25:17;;;;;;;;;;;;;;;;;;6239046;22;19919;-87
2023/05/06 06:27:43;;;;;;;;;;;;;;;;;;6214512;22;19973;-88
2023/05/06 06:30:09;;;;;;;;;;;;;;;;;;6239328;22;19927;-87
2023/05/06 06:32:35;;;;;;;;;;;;;;;;;;6214004;22;19996;-87
2023/05/06 06:35:01;;;;;;;;;;;;;;;;;;6241256;22;19926;-87
2023/05/06 06:37:26;;;;;;;;;;;;;;;;;;6238850;22;20244;-87
2023/05/06 06:39:52;;;;;;;;;;;;;;;;;;6241195;22;19919;-87
2023/05/06 06:42:18;;;;;;;;;;;;;;;;;;6211106;22;19969;-87
2023/05/06 06:44:44;;;;;;;;;;;;;;;;;;6214527;22;20417;-87
2023/05/06 06:47:10;;;;;;;;;;;;;;;;;;6212818;22;19919;-87
2023/05/06 06:49:37;;;;;;;;;;;;;;;;;;6241116;22;20351;-87
2023/05/06 06:52:06;;;;;;;;;;;;;;;;;;6215538;22;20233;-88
2023/05/06 06:54:32;;;;;;;;;;;;;;;;;;6216348;22;19981;-88
2023/05/06 06:56:58;;;;;;;;;;;;;;;;;;6215674;22;19923;-87
2023/05/06 06:59:24;;;;;;;;;;;;;;;;;;6213046;22;21041;-87
2023/05/06 07:01:50;;;;;;;;;;;;;;;;;;6215492;22;20225;-87
2023/05/06 07:04:15;;;;;;;;;;;;;;;;;;6213862;22;19915;-87
2023/05/06 07:06:41;;;;;;;;;;;;;;;;;;6214642;22;19930;-88
2023/05/06 07:09:07;;;;;;;;;;;;;;;;;;6238672;22;19962;-88
2023/05/06 07:11:33;;;;;;;;;;;;;;;;;;6215579;22;20256;-87
2023/05/06 07:13:59;;;;;;;;;;;;;;;;;;6216554;22;19919;-88
2023/05/06 07:16:25;;;;;;;;;;;;;;;;;;6211953;22;19919;-88
2023/05/06 07:18:52;;;;;;;;;;;;;;;;;;6241512;22;19927;-88
2023/05/06 07:21:18;;;;;;;;;;;;;;;;;;6212383;22;19947;-88
2023/05/06 07:23:44;;;;;;;;;;;;;;;;;;6215113;22;19969;-88
2023/05/06 07:26:10;;;;;;;;;;;;;;;;;;6211118;22;19919;-88
2023/05/06 07:28:36;;;;;;;;;;;;;;;;;;6211141;22;20457;-88
2023/05/06 07:31:02;;;;;;;;;;;;;;;;;;6213386;22;20325;-88
2023/05/06 07:33:28;;;;;;;;;;;;;;;;;;6238603;22;20244;-87
2023/05/06 07:35:54;;;;;;;;;;;;;;;;;;6239611;22;19919;-87
2023/05/06 07:38:20;;;;;;;;;;;;;;;;;;6212847;22;19923;-87
2023/05/06 07:40:46;;;;;;;;;;;;;;;;;;6214411;22;20040;-88
2023/05/06 07:43:12;;;;;;;;;;;;;;;;;;6209911;22;19919;-88
2023/05/06 07:45:38;;;;;;;;;;;;;;;;;;6239166;22;20336;-88
2023/05/06 07:48:04;;;;;;;;;;;;;;;;;;6240448;22;20522;-87
2023/05/06 07:50:30;;;;;;;;;;;;;;;;;;6241450;22;19925;-88
2023/05/06 07:52:56;;;;;;;;;;;;;;;;;;6215998;22;20253;-87
2023/05/06 07:55:22;;;;;;;;;;;;;;;;;;6237538;22;20398;-88
2023/05/06 07:57:48;;;;;;;;;;;;;;;;;;6210444;22;19923;-88
2023/05/06 08:00:14;;;;;;;;;;;;;;;;;;6210205;22;20049;-88
2023/05/06 08:02:43;;;;;;;;;;;;;;;;;;6237146;22;20430;-88
2023/05/06 08:05:09;;;;;;;;;;;;;;;;;;6211522;22;19919;-88
2023/05/06 08:07:35;;;;;;;;;;;;;;;;;;6236724;22;19919;-87
2023/05/06 08:10:01;;;;;;;;;;;;;;;;;;6239042;22;19922;-88
2023/05/06 08:12:27;;;;;;;;;;;;;;;;;;6210046;22;19986;-88
2023/05/06 08:14:54;;;;;;;;;;;;;;;;;;6212928;22;19967;-88
2023/05/06 08:17:19;;;;;;;;;;;;;;;;;;6209639;22;19915;-88
2023/05/06 08:19:45;;;;;;;;;;;;;;;;;;6213262;22;20336;-88
2023/05/06 08:22:11;;;;;;;;;;;;;;;;;;6208613;22;19950;-87
2023/05/06 08:24:37;;;;;;;;;;;;;;;;;;6212995;22;20287;-87
2023/05/06 08:27:04;;;;;;;;;;;;;;;;;;6213488;22;19919;-87
2023/05/06 08:29:30;;;;;;;;;;;;;;;;;;6212707;22;19916;-88
2023/05/06 08:31:56;;;;;;;;;;;;;;;;;;6212572;22;20347;-88
2023/05/06 08:34:22;;;;;;;;;;;;;;;;;;6234000;22;20346;-87
2023/05/06 08:36:48;;;;;;;;;;;;;;;;;;6211623;22;20343;-87
2023/05/06 08:39:14;;;;;;;;;;;;;;;;;;6233197;22;19958;-87
2023/05/06 08:41:40;;;;;;;;;;;;;;;;;;6236558;22;20244;-87
2023/05/06 08:44:06;;;;;;;;;;;;;;;;;;6210608;22;20248;-88
2023/05/06 08:46:31;;;;;;;;;;;;;;;;;;6239077;22;19919;-88
2023/05/06 08:48:57;;;;;;;;;;;;;;;;;;6238231;22;20351;-88
2023/05/06 08:51:23;;;;;;;;;;;;;;;;;;6210629;22;19968;-87
2023/05/06 08:53:50;;;;;;;;;;;;;;;;;;6212191;22;20328;-88
2023/05/06 08:56:16;;;;;;;;;;;;;;;;;;6233773;22;19926;-87
2023/05/06 08:58:42;;;;;;;;;;;;;;;;;;6239095;22;19923;-88
2023/05/06 09:01:08;;;;;;;;;;;;;;;;;;6237332;22;19953;-88
2023/05/06 09:03:34;;;;;;;;;;;;;;;;;;6215216;22;19923;-87
2023/05/06 09:06:01;;;;;;;;;;;;;;;;;;6239287;22;19962;-88
2023/05/06 09:08:27;;;;;;;;;;;;;;;;;;6239628;22;19965;-87
2023/05/06 09:10:53;;;;;;;;;;;;;;;;;;6239737;22;19919;-88
2023/05/06 09:13:19;;;;;;;;;;;;;;;;;;6232722;22;19919;-88
2023/05/06 09:15:46;;;;;;;;;;;;;;;;;;6241322;22;19923;-88
2023/05/06 09:18:27;;;;;;;;;;;;;;;;;;6237137;22;20006;-88
2023/05/06 09:20:53;;;;;;;;;;;;;;;;;;6240686;22;19994;-88
2023/05/06 09:23:19;;;;;;;;;;;;;;;;;;6212718;22;19954;-88
2023/05/06 09:25:45;;;;;;;;;;;;;;;;;;6214786;22;19919;-88
2023/05/06 09:28:11;;;;;;;;;;;;;;;;;;6210994;22;19919;-88
2023/05/06 09:30:37;;;;;;;;;;;;;;;;;;6214260;22;19922;-87
2023/05/06 09:33:03;;;;;;;;;;;;;;;;;;6214436;22;19926;-89
2023/05/06 09:35:30;;;;;;;;;;;;;;;;;;6216308;22;19915;-88
2023/05/06 09:37:56;;;;;;;;;;;;;;;;;;6214357;22;20347;-88
2023/05/06 09:40:22;;;;;;;;;;;;;;;;;;6205486;22;19974;-89
2023/05/06 09:42:50;;;;;;;;;;;;;;;;;;6216204;22;19919;-88
2023/05/06 09:45:16;;;;;;;;;;;;;;;;;;6209998;22;20430;-89
2023/05/06 09:47:43;;;;;;;;;;;;;;;;;;6237674;22;20389;-87
2023/05/06 09:50:09;;;;;;;;;;;;;;;;;;6212108;22;19973;-88
2023/05/06 09:52:35;;;;;;;;;;;;;;;;;;6212057;22;19938;-88
2023/05/06 09:55:01;;;;;;;;;;;;;;;;;;6214813;22;19916;-88
2023/05/06 09:57:27;;;;;;;;;;;;;;;;;;6213027;22;20348;-88
2023/05/06 09:59:53;;;;;;;;;;;;;;;;;;6216318;22;19998;-88
2023/05/06 10:02:19;;;;;;;;;;;;;;;;;;6212523;22;19919;-88
2023/05/06 10:04:45;;;;;;;;;;;;;;;;;;6217154;22;20217;-89
2023/05/06 10:07:14;;;;;;;;;;;;;;;;;;6213721;22;19969;-89
2023/05/06 10:09:40;;;;;;;;;;;;;;;;;;6214489;22;19926;-89
2023/05/06 10:12:06;;;;;;;;;;;;;;;;;;6238459;22;20315;-89
2023/05/06 10:14:32;;;;;;;;;;;;;;;;;;6241244;22;19915;-88
2023/05/06 10:16:58;;;;;;;;;;;;;;;;;;6242984;22;19990;-89
2023/05/06 10:19:24;;;;;;;;;;;;;;;;;;6238470;22;20380;-89
2023/05/06 10:21:50;;;;;;;;;;;;;;;;;;6242898;22;19959;-88
2023/05/06 10:24:16;;;;;;;;;;;;;;;;;;6213859;22;19981;-88
2023/05/06 10:26:42;;;;;;;;;;;;;;;;;;6269440;22;20349;-88
2023/05/06 10:29:08;;;;;;;;;;;;;;;;;;6238765;22;19920;-89
2023/05/06 10:31:34;;;;;;;;;;;;;;;;;;6240295;22;19927;-89
2023/05/06 10:34:00;;;;;;;;;;;;;;;;;;6241605;22;19972;-89
2023/05/06 10:36:26;;;;;;;;;;;;;;;;;;6238899;22;19926;-89
2023/05/06 10:38:53;;;;;;;;;;;;;;;;;;6240976;22;20002;-90
2023/05/06 10:41:21;;;;;;;;;;;;;;;;;;6238549;22;20334;-88
2023/05/06 10:43:48;;;;;;;;;;;;;;;;;;6242341;22;19942;-88
2023/05/06 10:46:14;;;;;;;;;;;;;;;;;;6238039;22;19990;-89
2023/05/06 10:48:40;;;;;;;;;;;;;;;;;;6267569;22;19942;-90
2023/05/06 10:51:06;;;;;;;;;;;;;;;;;;6237594;22;19919;-89
2023/05/06 10:53:32;;;;;;;;;;;;;;;;;;6217327;22;19993;-89
2023/05/06 10:55:57;;;;;;;;;;;;;;;;;;6239769;22;20358;-88
2023/05/06 10:58:24;;;;;;;;;;;;;;;;;;6265452;22;19926;-89
2023/05/06 11:00:50;;;;;;;;;;;;;;;;;;6216858;22;19915;-89
2023/05/06 11:03:17;;;;;;;;;;;;;;;;;;6212839;22;19921;-89
2023/05/06 11:05:43;;;;;;;;;;;;;;;;;;6240878;22;19915;-89
2023/05/06 11:08:09;;;;;;;;;;;;;;;;;;6238969;22;19915;-88
2023/05/06 11:10:35;;;;;;;;;;;;;;;;;;6212542;22;19926;-90
2023/05/06 11:13:01;;;;;;;;;;;;;;;;;;6240345;22;20344;-90
2023/05/06 11:15:27;;;;;;;;;;;;;;;;;;6212746;22;19951;-89
2023/05/06 11:17:54;;;;;;;;;;;;;;;;;;6242170;22;19922;-89
2023/05/06 11:20:20;;;;;;;;;;;;;;;;;;6238491;22;20251;-89
2023/05/06 11:22:46;;;;;;;;;;;;;;;;;;6215539;22;20409;-89
2023/05/06 11:25:12;;;;;;;;;;;;;;;;;;6211921;22;19920;-89
2023/05/06 11:27:38;;;;;;;;;;;;;;;;;;6236015;22;19950;-90
2023/05/06 11:30:04;;;;;;;;;;;;;;;;;;6237525;22;19931;-89
2023/05/06 11:32:30;;;;;;;;;;;;;;;;;;6236767;22;20382;-89
2023/05/06 11:34:56;;;;;;;;;;;;;;;;;;6240817;22;19915;-88
2023/05/06 11:37:22;;;;;;;;;;;;;;;;;;6212230;22;20043;-89
2023/05/06 11:39:48;;;;;;;;;;;;;;;;;;6241072;22;19919;-89
2023/05/06 11:42:14;;;;;;;;;;;;;;;;;;6235621;22;19919;-88
2023/05/06 11:44:40;;;;;;;;;;;;;;;;;;6239238;22;19919;-89
2023/05/06 11:47:06;;;;;;;;;;;;;;;;;;6236095;22;19926;-89
2023/05/06 11:49:32;;;;;;;;;;;;;;;;;;6241548;22;19984;-88
2023/05/06 11:51:58;;;;;;;;;;;;;;;;;;6240434;22;20298;-89
2023/05/06 11:54:24;;;;;;;;;;;;;;;;;;6210671;22;20436;-89
2023/05/06 11:56:50;;;;;;;;;;;;;;;;;;6236865;22;19919;-88
2023/05/06 11:59:17;;;;;;;;;;;;;;;;;;6238615;22;19923;-90
2023/05/06 12:01:43;;;;;;;;;;;;;;;;;;6240510;22;19981;-88
2023/05/06 12:04:09;;;;;;;;;;;;;;;;;;6236862;22;19919;-88
2023/05/06 12:06:35;;;;;;;;;;;;;;;;;;6239073;22;19950;-89
2023/05/06 12:09:01;;;;;;;;;;;;;;;;;;6239503;22;19991;-89
2023/05/06 12:11:27;;;;;;;;;;;;;;;;;;6237121;22;19951;-89
2023/05/06 12:13:53;;;;;;;;;;;;;;;;;;6238732;22;20340;-90
2023/05/06 12:16:19;;;;;;;;;;;;;;;;;;6210859;22;19919;-89
2023/05/06 12:18:45;;;;;;;;;;;;;;;;;;6215178;22;19958;-89
2023/05/06 12:21:11;;;;;;;;;;;;;;;;;;6211874;22;19919;-90
2023/05/06 12:23:41;;;;;;;;;;;;;;;;;;6235843;22;20331;-89
2023/05/06 12:26:08;;;;;;;;;;;;;;;;;;6209360;22;19919;-89
2023/05/06 12:28:33;;;;;;;;;;;;;;;;;;6210480;22;20333;-88
2023/05/06 12:30:59;;;;;;;;;;;;;;;;;;6210334;22;19977;-89
2023/05/06 12:33:25;;;;;;;;;;;;;;;;;;6206119;22;20252;-90
2023/05/06 12:35:53;;;;;;;;;;;;;;;;;;6208398;22;19919;-89
2023/05/06 12:38:19;;;;;;;;;;;;;;;;;;6233407;22;19923;-89
2023/05/06 12:40:45;;;;;;;;;;;;;;;;;;6241063;22;20326;-89
2023/05/06 12:43:11;;;;;;;;;;;;;;;;;;6261620;22;20017;-90
2023/05/06 12:45:38;;;;;;;;;;;;;;;;;;6238036;22;19923;-89
2023/05/06 12:48:04;;;;;;;;;;;;;;;;;;6236960;22;19941;-89
2023/05/06 12:50:30;;;;;;;;;;;;;;;;;;6236649;22;20352;-88
2023/05/06 12:52:56;;;;;;;;;;;;;;;;;;6239270;22;20749;-89
2023/05/06 12:55:24;;;;;;;;;;;;;;;;;;6234306;22;19973;-89
2023/05/06 12:57:51;;;;;;;;;;;;;;;;;;6209695;22;19931;-89
2023/05/06 13:00:17;;;;;;;;;;;;;;;;;;6231387;22;20016;-88
2023/05/06 13:02:43;;;;;;;;;;;;;;;;;;6237070;22;20003;-90
2023/05/06 13:05:09;;;;;;;;;;;;;;;;;;6233073;22;20247;-89
2023/05/06 13:07:35;;;;;;;;;;;;;;;;;;6233309;22;20516;-90
2023/05/06 13:10:02;;;;;;;;;;;;;;;;;;6235984;22;19915;-89
2023/05/06 13:12:28;;;;;;;;;;;;;;;;;;6233456;22;20386;-89
2023/05/06 13:14:54;;;;;;;;;;;;;;;;;;6232447;22;19919;-89
2023/05/06 13:17:20;;;;;;;;;;;;;;;;;;6231855;22;20312;-89
2023/05/06 13:19:46;;;;;;;;;;;;;;;;;;6234956;22;19990;-88
2023/05/06 13:22:12;;;;;;;;;;;;;;;;;;6234467;22;19919;-89
2023/05/06 13:24:38;;;;;;;;;;;;;;;;;;6210441;22;19989;-90
2023/05/06 13:27:05;;;;;;;;;;;;;;;;;;6211147;22;19919;-90
2023/05/06 13:29:31;;;;;;;;;;;;;;;;;;6208756;22;19950;-89
2023/05/06 13:31:57;;;;;;;;;;;;;;;;;;6212103;22;20153;-90
2023/05/06 13:34:23;;;;;;;;;;;;;;;;;;6233978;22;20061;-89
2023/05/06 13:36:49;;;;;;;;;;;;;;;;;;6213446;22;19961;-89
2023/05/06 13:39:15;;;;;;;;;;;;;;;;;;6236915;22;19937;-90
2023/05/06 13:41:41;;;;;;;;;;;;;;;;;;6237063;22;19958;-88
2023/05/06 13:44:07;;;;;;;;;;;;;;;;;;6209404;22;19941;-89
2023/05/06 13:46:33;;;;;;;;;;;;;;;;;;6212914;22;19919;-89
2023/05/06 13:48:59;;;;;;;;;;;;;;;;;;6240164;22;19915;-90
2023/05/06 13:51:28;;;;;;;;;;;;;;;;;;6205166;22;19919;-89
2023/05/06 13:53:54;;;;;;;;;;;;;;;;;;6238879;22;19932;-89
2023/05/06 13:56:20;;;;;;;;;;;;;;;;;;6233189;22;19923;-88
2023/05/06 13:58:46;;;;;;;;;;;;;;;;;;6214562;22;20324;-89
2023/05/06 14:01:12;;;;;;;;;;;;;;;;;;6212096;22;19915;-89
2023/05/06 14:03:38;;;;;;;;;;;;;;;;;;6214684;22;19923;-89
2023/05/06 14:06:04;;;;;;;;;;;;;;;;;;6238794;22;20260;-89
2023/05/06 14:08:31;;;;;;;;;;;;;;;;;;6216634;22;19919;-90
2023/05/06 14:10:57;;;;;;;;;;;;;;;;;;6215659;22;19926;-88
2023/05/06 14:13:23;;;;;;;;;;;;;;;;;;6214512;22;19919;-88
2023/05/06 14:15:49;;;;;;;;;;;;;;;;;;6217747;22;19926;-89
2023/05/06 14:18:15;;;;;;;;;;;;;;;;;;6238666;22;20294;-88
2023/05/06 14:20:41;;;;;;;;;;;;;;;;;;6241253;22;19915;-88
2023/05/06 14:23:07;;;;;;;;;;;;;;;;;;6214210;22;20029;-88
2023/05/06 14:25:33;;;;;;;;;;;;;;;;;;6216485;22;19915;-87
2023/05/06 14:27:59;;;;;;;;;;;;;;;;;;6242818;22;20355;-87
2023/05/06 14:30:25;;;;;;;;;;;;;;;;;;6239292;22;19989;-89
2023/05/06 14:32:51;;;;;;;;;;;;;;;;;;6214396;22;19919;-89
2023/05/06 14:35:17;;;;;;;;;;;;;;;;;;6236983;22;19925;-88
2023/05/06 14:37:43;;;;;;;;;;;;;;;;;;6214432;22;20294;-87
2023/05/06 14:40:09;;;;;;;;;;;;;;;;;;6239981;22;19954;-88
2023/05/06 14:42:35;;;;;;;;;;;;;;;;;;6237986;22;20027;-88
2023/05/06 14:45:10;;;;;;;;;;;;;;;;;;6213379;22;19935;-89
2023/05/06 14:47:36;;;;;;;;;;;;;;;;;;6237216;22;19941;-89
2023/05/06 14:50:03;;;;;;;;;;;;;;;;;;6215706;22;19997;-87
2023/05/06 14:52:29;;;;;;;;;;;;;;;;;;6236738;22;19919;-88
2023/05/06 14:54:55;;;;;;;;;;;;;;;;;;6213958;22;19930;-88
2023/05/06 14:57:21;;;;;;;;;;;;;;;;;;6233059;22;19997;-89
2023/05/06 15:05:38;;;;;;;;;;;;;;;;;;6262533;22;20411;-86
2023/05/06 15:08:09;;;;;;;;;;;;;;;;;;6211397;22;19923;-86
2023/05/06 15:10:41;;;;;;;;;;;;;;;;;;6211980;22;20395;-86
2023/05/06 15:13:13;;;;;;;;;;;;;;;;;;6234980;22;20260;-86
2023/05/06 15:15:42;;;;;;;;;;;;;;;;;;6212137;22;19921;-86
2023/05/06 15:18:15;;;;;;;;;;;;;;;;;;6209463;22;19915;-87
2023/05/06 15:23:51;;;;;;;;;;;;;;;;;;6238410;22;19951;-86
2023/05/06 15:26:22;;;;;;;;;;;;;;;;;;6210751;22;20332;-87
2023/05/06 15:28:48;;;;;;;;;;;;;;;;;;6211469;22;19993;-86
2023/05/06 15:31:23;;;;;;;;;;;;;;;;;;6213065;22;20255;-86
2023/05/06 15:33:55;;;;;;;;;;;;;;;;;;6214540;22;19969;-86
2023/05/06 15:40:09;;;;;;;;;;;;;;;;;;6211067;22;19927;-86
2023/05/06 15:42:38;;;;;;;;;;;;;;;;;;6235617;22;20324;-86
2023/05/06 15:48:07;;;;;;;;;;;;;;;;;;6222245;22;19972;-84
2023/05/06 15:50:34;;;;;;;;;;;;;;;;;;6214055;22;20010;-84
2023/05/06 15:53:05;;;;;;;;;;;;;;;;;;6213395;22;19927;-83
2023/05/06 15:55:40;;;;;;;;;;;;;;;;;;6263424;22;19930;-83
2023/05/06 15:58:06;;;;;;;;;;;;;;;;;;6233034;22;19919;-84
2023/05/06 16:00:35;;;;;;;;;;;;;;;;;;6209966;22;19994;-84
2023/05/06 16:05:53;;;;;;;;;;;;;;;;;;6235696;22;20259;-84
2023/05/06 16:08:30;;;;;;;;;;;;;;;;;;6233764;22;19947;-85
2023/05/06 16:11:04;;;;;;;;;;;;;;;;;;6210696;22;19994;-84
2023/05/06 16:13:33;;;;;;;;;;;;;;;;;;6213244;22;20028;-84
2023/05/06 16:16:20;;;;;;;;;;;;;;;;;;6211372;22;19915;-84
2023/05/06 16:18:48;;;;;;;;;;;;;;;;;;6238030;22;19919;-84
2023/05/06 16:21:14;;;;;;;;;;;;;;;;;;6210304;22;19919;-84
2023/05/06 16:23:40;;;;;;;;;;;;;;;;;;6239596;22;19915;-84
2023/05/06 16:26:06;;;;;;;;;;;;;;;;;;6209428;22;19919;-84
2023/05/06 16:28:32;;;;;;;;;;;;;;;;;;6212909;22;19957;-84
2023/05/06 16:31:01;;;;;;;;;;;;;;;;;;6212077;22;20559;-84
2023/05/06 16:33:32;;;;;;;;;;;;;;;;;;6210087;22;20371;-84
2023/05/06 16:36:01;;;;;;;;;;;;;;;;;;6238532;22;20084;-85
2023/05/06 16:38:30;;;;;;;;;;;;;;;;;;6235398;22;20298;-85
2023/05/06 16:41:02;;;;;;;;;;;;;;;;;;6214842;22;19915;-85
2023/05/06 16:43:30;;;;;;;;;;;;;;;;;;6235122;22;19926;-84
2023/05/06 16:46:06;;;;;;;;;;;;;;;;;;6214936;22;19923;-84
2023/05/06 16:48:32;;;;;;;;;;;;;;;;;;6212462;22;19919;-85
2023/05/06 16:51:02;;;;;;;;;;;;;;;;;;6212993;22;20236;-85
2023/05/06 16:53:35;;;;;;;;;;;;;;;;;;6208418;22;19919;-85
2023/05/06 16:56:04;;;;;;;;;;;;;;;;;;6209762;22;19969;-86
2023/05/06 16:58:38;;;;;;;;;;;;;;;;;;6238466;22;19994;-86